createdAt,value
2017-04-28T00:00:34.629Z,5.89
2017-04-28T00:01:43.840Z,5.93
2017-04-28T00:02:52.730Z,5.83
2017-04-28T00:04:02.596Z,5.99
2017-04-28T00:05:11.816Z,5.97
2017-04-28T00:06:20.962Z,6
2017-04-28T00:07:29.855Z,6
2017-04-28T00:08:39.070Z,6.03
2017-04-28T00:09:48.609Z,5.9
2017-04-28T00:10:58.150Z,6.11
2017-04-28T00:12:07.889Z,6.04
2017-04-28T00:13:17.426Z,6.06
2017-04-28T00:14:26.643Z,6.04
2017-04-28T00:15:35.527Z,6.14
2017-04-28T00:16:44.422Z,5.97
2017-04-28T00:17:54.911Z,6.03
2017-04-28T00:19:04.453Z,6.06
2017-04-28T00:20:13.672Z,6.01
2017-04-28T00:21:22.884Z,5.99
2017-04-28T00:22:32.101Z,5.97
2017-04-28T00:23:41.834Z,5.93
2017-04-28T00:24:51.047Z,6.06
2017-04-28T00:26:00.582Z,6.04
2017-04-28T00:27:09.470Z,6.09
2017-04-28T00:28:18.356Z,6.14
2017-04-28T00:29:27.622Z,6.11
2017-04-28T00:30:37.159Z,6.12
2017-04-28T00:31:46.046Z,6.17
2017-04-28T00:32:54.932Z,6.14
2017-04-28T00:34:04.144Z,6.01
2017-04-28T00:35:13.520Z,6.01
2017-04-28T00:36:22.405Z,6.03
2017-04-28T00:37:31.292Z,6.04
2017-04-28T00:38:40.508Z,5.96
2017-04-28T00:39:50.047Z,6.04
2017-04-28T00:40:59.996Z,6.14
2017-04-28T00:42:09.212Z,6.03
2017-04-28T00:43:18.097Z,6.03
2017-04-28T00:44:27.965Z,6.01
2017-04-28T00:45:37.175Z,6
2017-04-28T00:46:46.540Z,6.04
2017-04-28T00:47:55.428Z,6.04
2017-04-28T00:49:04.973Z,6
2017-04-28T00:50:14.510Z,6.06
2017-04-28T00:51:23.724Z,5.96
2017-04-28T00:52:32.764Z,6.03
2017-04-28T00:53:41.983Z,5.97
2017-04-28T00:54:51.200Z,6
2017-04-28T00:56:00.412Z,6
2017-04-28T00:57:09.297Z,5.94
2017-04-28T00:58:18.984Z,5.99
2017-04-28T00:59:28.198Z,6.03
2017-04-28T01:00:37.087Z,6.03
2017-04-28T01:01:46.309Z,6.06
2017-04-28T01:02:55.524Z,6.08
2017-04-28T01:04:05.060Z,6.09
2017-04-28T01:05:14.272Z,6.14
2017-04-28T01:06:23.483Z,6.11
2017-04-28T01:07:32.368Z,6.12
2017-04-28T01:08:41.908Z,6.12
2017-04-28T01:09:51.268Z,6.11
2017-04-28T01:11:00.480Z,6.12
2017-04-28T01:12:10.016Z,6.08
2017-04-28T01:13:19.558Z,6.09
2017-04-28T01:14:28.772Z,6.18
2017-04-28T01:15:38.083Z,6
2017-04-28T01:16:47.302Z,6.04
2017-04-28T01:17:56.836Z,6.08
2017-04-28T01:19:06.377Z,6.06
2017-04-28T01:20:15.269Z,6.01
2017-04-28T01:21:24.405Z,6.08
2017-04-28T01:22:33.620Z,6.03
2017-04-28T01:23:42.510Z,6.04
2017-04-28T01:24:52.050Z,6.15
2017-04-28T01:26:01.271Z,6.03
2017-04-28T01:27:10.649Z,5.99
2017-04-28T01:28:19.858Z,6.04
2017-04-28T01:29:29.394Z,6.01
2017-04-28T01:30:38.311Z,6.06
2017-04-28T01:31:47.196Z,6.04
2017-04-28T01:32:56.386Z,6.12
2017-04-28T01:34:05.603Z,5.94
2017-04-28T01:35:14.813Z,6.03
2017-04-28T01:36:23.700Z,6.04
2017-04-28T01:37:33.232Z,6.01
2017-04-28T01:38:42.919Z,6
2017-04-28T01:39:52.462Z,5.97
2017-04-28T01:41:01.679Z,5.99
2017-04-28T01:42:11.216Z,6.01
2017-04-28T01:43:20.104Z,6.09
2017-04-28T01:44:29.749Z,6.01
2017-04-28T01:45:38.965Z,6.12
2017-04-28T01:46:47.850Z,6.14
2017-04-28T01:47:56.741Z,6.14
2017-04-28T01:49:05.957Z,6.09
2017-04-28T01:50:15.519Z,6.09
2017-04-28T01:51:24.409Z,6.08
2017-04-28T01:52:33.949Z,6
2017-04-28T01:53:43.488Z,6
2017-04-28T01:54:52.699Z,6.03
2017-04-28T01:56:02.283Z,6.08
2017-04-28T01:57:11.544Z,6.03
2017-04-28T01:58:20.756Z,6.04
2017-04-28T01:59:29.977Z,6.06
2017-04-28T02:00:38.868Z,6.04
2017-04-28T02:01:48.227Z,6.06
2017-04-28T02:02:57.773Z,6.09
2017-04-28T02:04:06.988Z,6.08
2017-04-28T02:05:16.201Z,6.04
2017-04-28T02:06:25.740Z,6.01
2017-04-28T02:07:34.687Z,6.03
2017-04-28T02:08:44.240Z,6.11
2017-04-28T02:09:53.450Z,6.14
2017-04-28T02:11:02.992Z,6.01
2017-04-28T02:12:12.527Z,6.06
2017-04-28T02:13:21.846Z,6.12
2017-04-28T02:14:31.388Z,6.12
2017-04-28T02:15:40.923Z,6.11
2017-04-28T02:16:49.805Z,6.17
2017-04-28T02:17:59.017Z,6.08
2017-04-28T02:19:08.059Z,6.11
2017-04-28T02:20:16.996Z,6.09
2017-04-28T02:21:26.531Z,6.08
2017-04-28T02:22:35.788Z,6.14
2017-04-28T02:23:44.685Z,6.14
2017-04-28T02:24:54.103Z,6.12
2017-04-28T02:26:03.970Z,6.17
2017-04-28T02:27:12.954Z,6.14
2017-04-28T02:28:22.493Z,6.12
2017-04-28T02:29:31.716Z,6.28
2017-04-28T02:30:41.251Z,6.21
2017-04-28T02:31:50.467Z,6.09
2017-04-28T02:33:00.004Z,6.08
2017-04-28T02:34:09.867Z,6.09
2017-04-28T02:35:19.084Z,6.14
2017-04-28T02:36:27.972Z,6.15
2017-04-28T02:37:36.861Z,6.04
2017-04-28T02:38:46.078Z,6.12
2017-04-28T02:39:55.619Z,6.14
2017-04-28T02:41:05.157Z,6.18
2017-04-28T02:42:14.749Z,6.12
2017-04-28T02:43:23.963Z,6.06
2017-04-28T02:44:33.827Z,6.11
2017-04-28T02:45:42.713Z,6.12
2017-04-28T02:46:51.938Z,6.12
2017-04-28T02:48:01.302Z,6.14
2017-04-28T02:49:10.840Z,6.08
2017-04-28T02:50:20.057Z,6.12
2017-04-28T02:51:29.279Z,6.06
2017-04-28T02:52:38.490Z,6.11
2017-04-28T02:53:48.026Z,6.12
2017-04-28T02:54:57.889Z,6.12
2017-04-28T02:56:07.431Z,6.09
2017-04-28T02:57:16.644Z,6.12
2017-04-28T02:58:25.533Z,6.12
2017-04-28T02:59:35.729Z,6.01
2017-04-28T03:00:45.263Z,6.04
2017-04-28T03:01:54.149Z,6.06
2017-04-28T03:03:03.368Z,6.09
2017-04-28T03:04:12.584Z,6.12
2017-04-28T03:05:22.096Z,6.04
2017-04-28T03:06:31.307Z,6.01
2017-04-28T03:07:40.523Z,6
2017-04-28T03:08:49.741Z,6.11
2017-04-28T03:09:59.615Z,6.09
2017-04-28T03:11:08.980Z,6.03
2017-04-28T03:12:18.196Z,6.06
2017-04-28T03:13:27.735Z,6
2017-04-28T03:14:37.284Z,6.15
2017-04-28T03:15:46.176Z,6.06
2017-04-28T03:16:55.809Z,6.06
2017-04-28T03:18:04.694Z,6.03
2017-04-28T03:19:13.913Z,6.11
2017-04-28T03:20:23.779Z,6.03
2017-04-28T03:21:32.986Z,5.99
2017-04-28T03:22:42.029Z,6.01
2017-04-28T03:23:51.595Z,5.97
2017-04-28T03:25:00.489Z,6.06
2017-04-28T03:26:09.700Z,6.04
2017-04-28T03:27:18.918Z,6.01
2017-04-28T03:28:28.603Z,6.04
2017-04-28T03:29:38.142Z,6.03
2017-04-28T03:30:47.029Z,6.06
2017-04-28T03:31:55.920Z,6.03
2017-04-28T03:33:05.466Z,6.06
2017-04-28T03:34:14.500Z,6.06
2017-04-28T03:35:23.397Z,6.11
2017-04-28T03:36:32.932Z,6.09
2017-04-28T03:37:42.143Z,6.09
2017-04-28T03:38:51.352Z,6.08
2017-04-28T03:40:01.046Z,6.14
2017-04-28T03:41:09.931Z,6.09
2017-04-28T03:42:19.146Z,6.11
2017-04-28T03:43:29.006Z,6.11
2017-04-28T03:44:38.546Z,6.14
2017-04-28T03:45:47.905Z,6.11
2017-04-28T03:46:57.119Z,6.06
2017-04-28T03:48:06.371Z,6.01
2017-04-28T03:49:15.594Z,6.06
2017-04-28T03:50:24.808Z,6.03
2017-04-28T03:51:34.218Z,6.04
2017-04-28T03:52:43.430Z,6.03
2017-04-28T03:53:52.318Z,6.01
2017-04-28T03:55:01.862Z,6.04
2017-04-28T03:56:10.748Z,6.04
2017-04-28T03:57:19.785Z,6.11
2017-04-28T03:58:29.328Z,6.06
2017-04-28T03:59:38.578Z,6.09
2017-04-28T04:00:47.465Z,6.03
2017-04-28T04:01:56.680Z,6.06
2017-04-28T04:03:06.543Z,5.99
2017-04-28T04:04:15.758Z,6.06
2017-04-28T04:05:25.620Z,6.06
2017-04-28T04:06:34.503Z,6.17
2017-04-28T04:07:43.406Z,6.12
2017-04-28T04:08:53.644Z,6.14
2017-04-28T04:10:03.188Z,6.06
2017-04-28T04:11:12.405Z,6.14
2017-04-28T04:12:21.947Z,6.01
2017-04-28T04:13:31.162Z,6.09
2017-04-28T04:14:40.444Z,6.12
2017-04-28T04:15:49.658Z,6.08
2017-04-28T04:16:58.868Z,6.09
2017-04-28T04:18:07.756Z,6.17
2017-04-28T04:19:17.618Z,6.11
2017-04-28T04:20:27.733Z,6.25
2017-04-28T04:21:36.622Z,6.19
2017-04-28T04:22:45.511Z,6.14
2017-04-28T04:23:54.399Z,6.09
2017-04-28T04:25:03.935Z,6.18
2017-04-28T04:26:13.067Z,6.17
2017-04-28T04:27:22.277Z,6.21
2017-04-28T04:28:31.506Z,6.31
2017-04-28T04:29:40.723Z,6.22
2017-04-28T04:30:49.611Z,6.28
2017-04-28T04:31:58.928Z,6.34
2017-04-28T04:33:08.147Z,6.19
2017-04-28T04:34:17.363Z,6.21
2017-04-28T04:35:26.584Z,6.27
2017-04-28T04:36:35.473Z,6.25
2017-04-28T04:37:44.735Z,6.28
2017-04-28T04:38:54.274Z,6.33
2017-04-28T04:40:04.465Z,6.25
2017-04-28T04:41:13.351Z,6.27
2017-04-28T04:42:22.565Z,6.3
2017-04-28T04:43:31.800Z,6.33
2017-04-28T04:44:41.343Z,6.36
2017-04-28T04:45:50.883Z,6.31
2017-04-28T04:46:59.772Z,6.34
2017-04-28T04:48:09.309Z,6.41
2017-04-28T04:49:18.947Z,6.36
2017-04-28T04:50:29.137Z,6.41
2017-04-28T04:51:38.674Z,6.37
2017-04-28T04:52:48.537Z,6.38
2017-04-28T04:53:57.767Z,6.38
2017-04-28T04:55:07.227Z,6.37
2017-04-28T04:56:16.441Z,6.4
2017-04-28T04:57:25.661Z,6.4
2017-04-28T04:58:34.549Z,6.44
2017-04-28T04:59:43.435Z,6.43
2017-04-28T05:00:52.524Z,6.36
2017-04-28T05:02:01.744Z,6.33
2017-04-28T05:03:10.642Z,6.4
2017-04-28T05:04:20.179Z,6.33
2017-04-28T05:05:29.726Z,6.37
2017-04-28T05:06:39.328Z,6.37
2017-04-28T05:07:49.191Z,6.36
2017-04-28T05:08:58.735Z,6.38
2017-04-28T05:10:07.633Z,6.4
2017-04-28T05:11:16.530Z,6.34
2017-04-28T05:12:25.746Z,6.4
2017-04-28T05:13:35.303Z,6.37
2017-04-28T05:14:44.845Z,6.37
2017-04-28T05:15:54.390Z,6.38
2017-04-28T05:17:03.934Z,6.49
2017-04-28T05:18:13.160Z,6.49
2017-04-28T05:19:22.709Z,6.61
2017-04-28T05:20:33.027Z,6.64
2017-04-28T05:21:42.008Z,6.62
2017-04-28T05:22:51.428Z,6.64
2017-04-28T05:24:01.033Z,6.71
2017-04-28T05:25:10.571Z,6.61
2017-04-28T05:26:19.456Z,6.61
2017-04-28T05:27:28.722Z,6.71
2017-04-28T05:28:37.941Z,6.69
2017-04-28T05:29:47.500Z,6.69
2017-04-28T05:30:56.388Z,6.74
2017-04-28T05:32:05.604Z,6.74
2017-04-28T05:33:14.973Z,6.73
2017-04-28T05:34:24.190Z,6.77
2017-04-28T05:35:33.415Z,6.87
2017-04-28T05:36:42.302Z,6.89
2017-04-28T05:37:51.844Z,6.87
2017-04-28T05:39:01.711Z,6.8
2017-04-28T05:40:11.579Z,6.88
2017-04-28T05:41:21.127Z,6.81
2017-04-28T05:42:30.017Z,6.88
2017-04-28T05:43:39.230Z,6.97
2017-04-28T05:44:48.498Z,6.91
2017-04-28T05:45:57.712Z,6.98
2017-04-28T05:47:06.599Z,6.88
2017-04-28T05:48:16.139Z,6.88
2017-04-28T05:49:25.364Z,7.02
2017-04-28T05:50:35.058Z,6.98
2017-04-28T05:51:44.602Z,7.02
2017-04-28T05:52:53.823Z,6.99
2017-04-28T05:54:03.691Z,7.06
2017-04-28T05:55:12.910Z,6.98
2017-04-28T05:56:22.375Z,6.99
2017-04-28T05:57:31.329Z,7.05
2017-04-28T05:58:40.594Z,6.94
2017-04-28T05:59:51.729Z,6.91
2017-04-28T06:01:02.393Z,6.88
2017-04-28T06:02:13.001Z,6.94
2017-04-28T06:03:22.337Z,6.94
2017-04-28T06:04:31.952Z,6.99
2017-04-28T06:05:42.120Z,7.07
2017-04-28T06:06:51.792Z,7.1
2017-04-28T06:08:02.538Z,7.16
2017-04-28T06:09:11.936Z,7.21
2017-04-28T06:10:22.236Z,7.16
2017-04-28T06:11:31.464Z,7.17
2017-04-28T06:12:41.005Z,7.23
2017-04-28T06:13:50.327Z,7.12
2017-04-28T06:14:59.872Z,7.24
2017-04-28T06:16:10.015Z,7.15
2017-04-28T06:17:19.233Z,7.21
2017-04-28T06:18:28.138Z,7.25
2017-04-28T06:19:37.508Z,7.32
2017-04-28T06:20:46.725Z,7.31
2017-04-28T06:21:55.942Z,7.34
2017-04-28T06:23:05.156Z,7.21
2017-04-28T06:24:14.374Z,7.32
2017-04-28T06:25:23.261Z,7.34
2017-04-28T06:26:33.119Z,7.34
2017-04-28T06:27:42.336Z,7.31
2017-04-28T06:28:51.882Z,7.32
2017-04-28T06:30:01.106Z,7.28
2017-04-28T06:31:10.157Z,7.3
2017-04-28T06:32:19.372Z,7.25
2017-04-28T06:33:28.913Z,7.35
2017-04-28T06:34:37.804Z,7.37
2017-04-28T06:35:47.350Z,7.45
2017-04-28T06:36:56.342Z,7.53
2017-04-28T06:38:05.560Z,7.57
2017-04-28T06:39:15.109Z,7.68
2017-04-28T06:40:24.000Z,7.71
2017-04-28T06:41:32.893Z,7.68
2017-04-28T06:42:42.585Z,7.67
2017-04-28T06:43:51.483Z,7.6
2017-04-28T06:45:00.699Z,7.61
2017-04-28T06:46:09.590Z,7.61
2017-04-28T06:47:18.813Z,7.67
2017-04-28T06:48:28.506Z,7.6
2017-04-28T06:49:37.725Z,7.67
2017-04-28T06:50:46.619Z,7.67
2017-04-28T06:51:55.516Z,7.69
2017-04-28T06:53:04.737Z,7.68
2017-04-28T06:54:14.381Z,7.72
2017-04-28T06:55:24.256Z,7.83
2017-04-28T06:56:33.477Z,7.86
2017-04-28T06:57:42.697Z,7.83
2017-04-28T06:58:51.917Z,7.75
2017-04-28T07:00:00.959Z,7.71
2017-04-28T07:01:10.172Z,7.69
2017-04-28T07:02:19.404Z,7.67
2017-04-28T07:03:28.950Z,7.57
2017-04-28T07:04:38.500Z,7.58
2017-04-28T07:05:47.543Z,7.69
2017-04-28T07:06:57.089Z,7.63
2017-04-28T07:08:06.307Z,7.68
2017-04-28T07:09:15.526Z,7.79
2017-04-28T07:10:25.071Z,7.86
2017-04-28T07:11:34.022Z,7.92
2017-04-28T07:12:43.570Z,7.82
2017-04-28T07:13:53.446Z,7.82
2017-04-28T07:15:03.312Z,7.83
2017-04-28T07:16:12.541Z,7.82
2017-04-28T07:17:21.583Z,7.68
2017-04-28T07:18:31.446Z,7.77
2017-04-28T07:19:40.992Z,7.8
2017-04-28T07:20:50.205Z,7.67
2017-04-28T07:21:59.433Z,7.67
2017-04-28T07:23:08.476Z,7.71
2017-04-28T07:24:17.695Z,7.79
2017-04-28T07:25:26.918Z,7.72
2017-04-28T07:26:36.135Z,7.75
2017-04-28T07:27:45.677Z,7.87
2017-04-28T07:28:54.722Z,7.8
2017-04-28T07:30:03.941Z,7.75
2017-04-28T07:31:13.156Z,7.79
2017-04-28T07:32:22.374Z,7.72
2017-04-28T07:33:31.271Z,7.71
2017-04-28T07:34:40.760Z,7.82
2017-04-28T07:35:49.657Z,7.64
2017-04-28T07:36:58.874Z,7.72
2017-04-28T07:38:07.763Z,7.72
2017-04-28T07:39:16.662Z,7.69
2017-04-28T07:40:25.820Z,7.71
2017-04-28T07:41:35.384Z,7.87
2017-04-28T07:42:44.280Z,7.87
2017-04-28T07:43:53.174Z,7.89
2017-04-28T07:45:02.715Z,7.89
2017-04-28T07:46:11.665Z,7.83
2017-04-28T07:47:21.206Z,7.89
2017-04-28T07:48:30.753Z,7.97
2017-04-28T07:49:39.646Z,7.86
2017-04-28T07:50:49.195Z,7.9
2017-04-28T07:51:58.338Z,7.92
2017-04-28T07:53:07.254Z,7.92
2017-04-28T07:54:16.471Z,7.85
2017-04-28T07:55:25.377Z,7.83
2017-04-28T07:56:34.594Z,7.9
2017-04-28T07:57:43.504Z,7.97
2017-04-28T07:58:52.401Z,7.98
2017-04-28T08:00:01.299Z,7.87
2017-04-28T08:01:10.525Z,7.79
2017-04-28T08:02:19.748Z,7.85
2017-04-28T08:03:28.837Z,7.92
2017-04-28T08:04:38.702Z,7.97
2017-04-28T08:05:47.916Z,7.98
2017-04-28T08:06:57.136Z,7.98
2017-04-28T08:08:06.028Z,8.01
2017-04-28T08:09:15.123Z,7.87
2017-04-28T08:10:24.031Z,7.87
2017-04-28T08:11:33.250Z,7.87
2017-04-28T08:12:42.141Z,7.82
2017-04-28T08:13:51.358Z,7.95
2017-04-28T08:15:00.358Z,7.86
2017-04-28T08:16:09.286Z,7.85
2017-04-28T08:17:18.504Z,7.85
2017-04-28T08:18:28.051Z,7.85
2017-04-28T08:19:37.273Z,7.8
2017-04-28T08:20:46.844Z,7.89
2017-04-28T08:21:56.063Z,7.89
2017-04-28T08:23:04.958Z,7.89
2017-04-28T08:24:14.497Z,8.04
2017-04-28T08:25:23.420Z,7.97
2017-04-28T08:26:32.458Z,7.95
2017-04-28T08:27:41.350Z,8.01
2017-04-28T08:28:50.928Z,7.92
2017-04-28T08:29:59.819Z,8.07
2017-04-28T08:31:08.726Z,8.05
2017-04-28T08:32:18.103Z,8.15
2017-04-28T08:33:26.999Z,8.07
2017-04-28T08:34:36.870Z,8.12
2017-04-28T08:35:46.092Z,8.05
2017-04-28T08:36:54.983Z,8.08
2017-04-28T08:38:04.034Z,8.19
2017-04-28T08:39:12.925Z,8.15
2017-04-28T08:40:22.150Z,8.18
2017-04-28T08:41:31.045Z,8.33
2017-04-28T08:42:40.586Z,8.41
2017-04-28T08:43:50.477Z,8.38
2017-04-28T08:44:59.695Z,8.29
2017-04-28T08:46:09.239Z,8.41
2017-04-28T08:47:18.788Z,8.44
2017-04-28T08:48:28.332Z,8.47
2017-04-28T08:49:38.028Z,8.5
2017-04-28T08:50:47.243Z,8.56
2017-04-28T08:51:56.133Z,8.55
2017-04-28T08:53:05.351Z,8.5
2017-04-28T08:54:14.259Z,8.59
2017-04-28T08:55:23.626Z,8.58
2017-04-28T08:56:32.521Z,8.65
2017-04-28T08:57:41.417Z,8.76
2017-04-28T08:58:50.962Z,8.65
2017-04-28T08:59:59.859Z,8.76
2017-04-28T09:01:09.713Z,8.71
2017-04-28T09:02:19.255Z,8.68
2017-04-28T09:03:28.148Z,8.63
2017-04-28T09:04:37.698Z,8.63
2017-04-28T09:05:46.589Z,8.56
2017-04-28T09:06:56.162Z,8.65
2017-04-28T09:08:06.030Z,8.65
2017-04-28T09:09:15.248Z,8.63
2017-04-28T09:10:25.442Z,8.71
2017-04-28T09:11:34.341Z,8.66
2017-04-28T09:12:43.387Z,8.62
2017-04-28T09:13:52.599Z,8.59
2017-04-28T09:15:01.488Z,8.68
2017-04-28T09:16:10.709Z,8.74
2017-04-28T09:17:19.603Z,8.76
2017-04-28T09:18:28.852Z,8.62
2017-04-28T09:19:37.751Z,8.73
2017-04-28T09:20:46.974Z,8.74
2017-04-28T09:21:55.864Z,8.79
2017-04-28T09:23:04.765Z,8.76
2017-04-28T09:24:14.508Z,8.77
2017-04-28T09:25:23.741Z,8.8
2017-04-28T09:26:32.958Z,8.87
2017-04-28T09:27:42.175Z,8.86
2017-04-28T09:28:51.399Z,8.91
2017-04-28T09:30:01.106Z,8.98
2017-04-28T09:31:10.010Z,8.99
2017-04-28T09:32:19.231Z,8.87
2017-04-28T09:33:28.474Z,8.89
2017-04-28T09:34:37.687Z,8.83
2017-04-28T09:35:47.052Z,9.08
2017-04-28T09:36:55.945Z,9.1
2017-04-28T09:38:04.840Z,9.26
2017-04-28T09:39:14.382Z,9.18
2017-04-28T09:40:23.282Z,9.28
2017-04-28T09:41:32.177Z,9.18
2017-04-28T09:42:41.072Z,9.29
2017-04-28T09:43:49.980Z,9.24
2017-04-28T09:44:58.873Z,9.2
2017-04-28T09:46:08.095Z,9.23
2017-04-28T09:47:17.376Z,9.35
2017-04-28T09:48:26.272Z,9.48
2017-04-28T09:49:35.162Z,9.43
2017-04-28T09:50:44.378Z,9.51
2017-04-28T09:51:53.624Z,9.53
2017-04-28T09:53:02.578Z,9.56
2017-04-28T09:54:11.474Z,9.53
2017-04-28T09:55:20.695Z,9.56
2017-04-28T09:56:29.591Z,9.54
2017-04-28T09:57:38.810Z,9.61
2017-04-28T09:58:47.967Z,9.61
2017-04-28T09:59:57.188Z,9.72
2017-04-28T10:01:06.078Z,9.76
2017-04-28T10:02:15.005Z,9.78
2017-04-28T10:03:23.897Z,9.79
2017-04-28T10:04:33.217Z,9.81
2017-04-28T10:05:42.790Z,9.76
2017-04-28T10:06:51.692Z,9.91
2017-04-28T10:08:00.589Z,9.79
2017-04-28T10:09:09.807Z,9.9
2017-04-28T10:10:18.779Z,9.94
2017-04-28T10:11:28.348Z,10.02
2017-04-28T10:12:37.891Z,10.01
2017-04-28T10:13:47.143Z,9.94
2017-04-28T10:14:56.436Z,10.07
2017-04-28T10:16:06.044Z,10.01
2017-04-28T10:17:14.937Z,10.07
2017-04-28T10:18:23.858Z,10.08
2017-04-28T10:19:33.421Z,10.05
2017-04-28T10:20:43.294Z,10.02
2017-04-28T10:21:52.342Z,10.11
2017-04-28T10:23:01.243Z,10.09
2017-04-28T10:24:10.146Z,10.12
2017-04-28T10:25:19.399Z,10.23
2017-04-28T10:26:28.295Z,10.41
2017-04-28T10:27:37.603Z,10.32
2017-04-28T10:28:46.828Z,10.36
2017-04-28T10:29:55.761Z,10.42
2017-04-28T10:31:05.004Z,10.32
2017-04-28T10:32:13.899Z,10.34
2017-04-28T10:33:23.367Z,10.47
2017-04-28T10:34:32.326Z,10.51
2017-04-28T10:35:41.220Z,10.53
2017-04-28T10:36:50.115Z,10.45
2017-04-28T10:37:59.015Z,10.44
2017-04-28T10:39:08.464Z,10.47
2017-04-28T10:40:18.054Z,10.64
2017-04-28T10:41:27.319Z,10.64
2017-04-28T10:42:36.541Z,10.68
2017-04-28T10:43:45.793Z,10.61
2017-04-28T10:44:55.213Z,10.73
2017-04-28T10:46:04.771Z,10.85
2017-04-28T10:47:13.666Z,10.86
2017-04-28T10:48:22.888Z,10.74
2017-04-28T10:49:32.137Z,10.76
2017-04-28T10:50:41.575Z,10.67
2017-04-28T10:51:50.483Z,10.76
2017-04-28T10:52:59.424Z,10.88
2017-04-28T10:54:08.648Z,10.97
2017-04-28T10:55:18.162Z,11
2017-04-28T10:56:27.732Z,11.04
2017-04-28T10:57:36.647Z,10.91
2017-04-28T10:58:45.868Z,10.82
2017-04-28T10:59:55.119Z,10.97
2017-04-28T11:01:04.375Z,11.03
2017-04-28T11:02:13.661Z,11.1
2017-04-28T11:03:22.915Z,11.24
2017-04-28T11:04:32.155Z,11.24
2017-04-28T11:05:41.707Z,11.27
2017-04-28T11:06:50.809Z,11.14
2017-04-28T11:07:59.756Z,11.21
2017-04-28T11:09:08.656Z,11.19
2017-04-28T11:10:17.561Z,11.19
2017-04-28T11:11:27.458Z,11.28
2017-04-28T11:12:37.548Z,11.22
2017-04-28T11:13:47.644Z,11.33
2017-04-28T11:14:56.585Z,11.29
2017-04-28T11:16:05.840Z,11.33
2017-04-28T11:17:14.832Z,11.36
2017-04-28T11:18:23.776Z,11.52
2017-04-28T11:19:33.180Z,11.37
2017-04-28T11:20:42.092Z,11.44
2017-04-28T11:21:51.104Z,11.39
2017-04-28T11:23:00.585Z,11.36
2017-04-28T11:24:09.483Z,11.51
2017-04-28T11:25:18.680Z,11.64
2017-04-28T11:26:28.231Z,11.64
2017-04-28T11:27:37.786Z,11.49
2017-04-28T11:28:47.008Z,11.51
2017-04-28T11:29:56.236Z,11.46
2017-04-28T11:31:05.643Z,11.49
2017-04-28T11:32:14.870Z,11.52
2017-04-28T11:33:24.745Z,11.65
2017-04-28T11:34:34.301Z,11.7
2017-04-28T11:35:43.539Z,11.94
2017-04-28T11:36:52.736Z,12.09
2017-04-28T11:38:01.964Z,12.13
2017-04-28T11:39:11.507Z,12.13
2017-04-28T11:40:20.407Z,11.88
2017-04-28T11:41:29.630Z,11.96
2017-04-28T11:42:39.150Z,12.02
2017-04-28T11:43:48.701Z,12.19
2017-04-28T11:44:57.595Z,12.39
2017-04-28T11:46:06.823Z,12.37
2017-04-28T11:47:16.700Z,12.52
2017-04-28T11:48:26.069Z,12.32
2017-04-28T11:49:34.967Z,12.24
2017-04-28T11:50:43.860Z,12.29
2017-04-28T11:51:52.754Z,12.53
2017-04-28T11:53:01.980Z,12.7
2017-04-28T11:54:11.032Z,12.78
2017-04-28T11:55:20.588Z,12.75
2017-04-28T11:56:29.509Z,12.79
2017-04-28T11:57:38.406Z,12.78
2017-04-28T11:58:47.302Z,12.57
2017-04-28T11:59:56.253Z,12.49
2017-04-28T12:01:06.130Z,12.5
2017-04-28T12:02:15.352Z,12.42
2017-04-28T12:03:24.257Z,12.49
2017-04-28T12:04:33.161Z,12.52
2017-04-28T12:05:42.961Z,12.65
2017-04-28T12:06:52.502Z,12.7
2017-04-28T12:08:01.408Z,12.62
2017-04-28T12:09:10.304Z,12.49
2017-04-28T12:10:19.203Z,12.87
2017-04-28T12:11:28.152Z,13.32
2017-04-28T12:12:37.053Z,13.48
2017-04-28T12:13:46.608Z,13.63
2017-04-28T12:14:55.507Z,13.73
2017-04-28T12:16:05.384Z,13.92
2017-04-28T12:17:14.814Z,13.91
2017-04-28T12:18:23.716Z,13.73
2017-04-28T12:19:32.944Z,13.46
2017-04-28T12:20:42.821Z,13.55
2017-04-28T12:21:51.736Z,13.29
2017-04-28T12:23:00.738Z,13.33
2017-04-28T12:24:09.969Z,13.15
2017-04-28T12:25:19.204Z,13.29
2017-04-28T12:26:28.126Z,13.51
2017-04-28T12:27:37.355Z,13.33
2017-04-28T12:28:46.732Z,13.32
2017-04-28T12:29:55.956Z,13.3
2017-04-28T12:31:05.182Z,13.32
2017-04-28T12:32:14.086Z,13.32
2017-04-28T12:33:23.963Z,13.12
2017-04-28T12:34:33.238Z,13.01
2017-04-28T12:35:42.470Z,13
2017-04-28T12:36:51.370Z,12.82
2017-04-28T12:38:00.594Z,12.77
2017-04-28T12:39:10.149Z,12.53
2017-04-28T12:40:19.096Z,12.5
2017-04-28T12:41:27.993Z,12.56
2017-04-28T12:42:37.215Z,12.57
2017-04-28T12:43:46.112Z,12.64
2017-04-28T12:44:55.009Z,12.54
2017-04-28T12:46:04.610Z,12.52
2017-04-28T12:47:14.162Z,12.5
2017-04-28T12:48:23.390Z,12.54
2017-04-28T12:49:32.973Z,12.54
2017-04-28T12:50:42.695Z,12.5
2017-04-28T12:51:52.520Z,12.39
2017-04-28T12:53:01.881Z,12.42
2017-04-28T12:54:11.106Z,12.5
2017-04-28T12:55:20.006Z,12.45
2017-04-28T12:56:28.913Z,12.39
2017-04-28T12:57:38.301Z,12.46
2017-04-28T12:58:47.195Z,12.5
2017-04-28T12:59:56.423Z,12.57
2017-04-28T13:01:05.328Z,12.56
2017-04-28T13:02:14.549Z,12.5
2017-04-28T13:03:23.592Z,12.52
2017-04-28T13:04:32.814Z,12.54
2017-04-28T13:05:41.715Z,12.79
2017-04-28T13:06:50.620Z,12.7
2017-04-28T13:07:59.853Z,12.68
2017-04-28T13:09:09.697Z,12.68
2017-04-28T13:10:18.918Z,12.64
2017-04-28T13:11:27.821Z,12.67
2017-04-28T13:12:37.075Z,12.64
2017-04-28T13:13:46.297Z,12.68
2017-04-28T13:14:55.499Z,12.67
2017-04-28T13:16:04.392Z,12.7
2017-04-28T13:17:13.612Z,12.5
2017-04-28T13:18:22.508Z,12.5
2017-04-28T13:19:32.052Z,12.39
2017-04-28T13:20:41.373Z,12.2
2017-04-28T13:21:50.269Z,12.07
2017-04-28T13:22:59.495Z,11.83
2017-04-28T13:24:09.039Z,11.64
2017-04-28T13:25:18.589Z,11.76
2017-04-28T13:26:27.637Z,11.75
2017-04-28T13:27:36.530Z,11.7
2017-04-28T13:28:45.750Z,11.43
2017-04-28T13:29:54.981Z,11.32
2017-04-28T13:31:04.201Z,11.33
2017-04-28T13:32:13.248Z,11.06
2017-04-28T13:33:22.473Z,10.99
2017-04-28T13:34:32.016Z,10.97
2017-04-28T13:35:41.562Z,10.85
2017-04-28T13:36:50.454Z,10.6
2017-04-28T13:37:59.996Z,10.67
2017-04-28T13:39:09.544Z,10.66
2017-04-28T13:40:19.094Z,10.48
2017-04-28T13:41:27.994Z,10.41
2017-04-28T13:42:37.549Z,10.2
2017-04-28T13:43:46.605Z,10.07
2017-04-28T13:44:55.514Z,10.04
2017-04-28T13:46:04.440Z,10.09
2017-04-28T13:47:13.993Z,9.84
2017-04-28T13:48:23.225Z,9.78
2017-04-28T13:49:32.605Z,9.71
2017-04-28T13:50:41.511Z,9.4
2017-04-28T13:51:50.791Z,9.47
2017-04-28T13:52:59.691Z,9.23
2017-04-28T13:54:08.592Z,9.18
2017-04-28T13:55:17.648Z,9.08
2017-04-28T13:56:26.896Z,8.87
2017-04-28T13:57:36.126Z,8.76
2017-04-28T13:58:45.358Z,8.87
2017-04-28T13:59:54.266Z,8.66
2017-04-28T14:01:03.872Z,8.61
2017-04-28T14:02:13.102Z,8.66
2017-04-28T14:03:22.662Z,8.55
2017-04-28T14:04:31.576Z,8.62
2017-04-28T14:05:40.805Z,8.63
2017-04-28T14:06:50.179Z,8.62
2017-04-28T14:07:59.083Z,8.68
2017-04-28T14:09:07.984Z,8.76
2017-04-28T14:10:16.889Z,8.73
2017-04-28T14:11:26.110Z,8.76
2017-04-28T14:12:35.061Z,8.77
2017-04-28T14:13:44.276Z,8.86
2017-04-28T14:14:53.499Z,8.95
2017-04-28T14:16:03.405Z,9.01
2017-04-28T14:17:12.956Z,9.14
2017-04-28T14:18:22.224Z,9.28
2017-04-28T14:19:31.764Z,9.43
2017-04-28T14:20:40.980Z,9.43
2017-04-28T14:21:50.203Z,9.42
2017-04-28T14:22:59.424Z,9.51
2017-04-28T14:24:08.491Z,9.56
2017-04-28T14:25:18.362Z,9.64
2017-04-28T14:26:27.254Z,9.72
2017-04-28T14:27:36.800Z,9.84
2017-04-28T14:28:45.697Z,9.78
2017-04-28T14:29:54.965Z,9.84
2017-04-28T14:31:04.247Z,9.89
2017-04-28T14:32:13.470Z,9.66
2017-04-28T14:33:22.364Z,9.56
2017-04-28T14:34:31.260Z,9.43
2017-04-28T14:35:40.204Z,9.5
2017-04-28T14:36:49.750Z,9.53
2017-04-28T14:37:58.970Z,9.5
2017-04-28T14:39:07.871Z,9.48
2017-04-28T14:40:17.420Z,9.39
2017-04-28T14:41:26.722Z,9.47
2017-04-28T14:42:35.614Z,9.46
2017-04-28T14:43:44.847Z,9.39
2017-04-28T14:44:53.739Z,9.5
2017-04-28T14:46:02.634Z,9.51
2017-04-28T14:47:11.825Z,9.61
2017-04-28T14:48:21.058Z,9.46
2017-04-28T14:49:29.955Z,9.43
2017-04-28T14:50:39.507Z,9.53
2017-04-28T14:51:48.424Z,9.51
2017-04-28T14:52:57.797Z,9.54
2017-04-28T14:54:07.339Z,9.56
2017-04-28T14:55:16.558Z,9.5
2017-04-28T14:56:25.451Z,9.66
2017-04-28T14:57:34.349Z,9.66
2017-04-28T14:58:44.196Z,9.69
2017-04-28T14:59:53.737Z,9.66
2017-04-28T15:01:02.650Z,9.69
2017-04-28T15:02:11.626Z,9.57
2017-04-28T15:03:20.844Z,9.51
2017-04-28T15:04:30.209Z,9.57
2017-04-28T15:05:39.430Z,9.47
2017-04-28T15:06:48.652Z,9.54
2017-04-28T15:07:57.546Z,9.53
2017-04-28T15:09:07.098Z,9.54
2017-04-28T15:10:16.790Z,9.61
2017-04-28T15:11:25.740Z,9.65
2017-04-28T15:12:34.958Z,9.69
2017-04-28T15:13:44.534Z,9.69
2017-04-28T15:14:53.756Z,9.61
2017-04-28T15:16:03.451Z,9.65
2017-04-28T15:17:12.663Z,9.53
2017-04-28T15:18:21.887Z,9.53